sensor_id;sensor_type;location;lat;lon;timestamp;pressure;altitude;pressure_sealevel;temperature;humidity
2549;BME280;1284;53.520;10.248;2023-04-06T00:01:31;101275.97;;;5.20;74.14
2549;BME280;1284;53.520;10.248;2023-04-06T00:03:56;101266.56;;;5.44;73.85
2549;BME280;1284;53.520;10.248;2023-04-06T00:06:22;101260.31;;;5.27;73.77
2549;BME280;1284;53.520;10.248;2023-04-06T00:08:47;101267.41;;;5.31;73.73
2549;BME280;1284;53.520;10.248;2023-04-06T00:11:13;101264.03;;;5.39;73.49
2549;BME280;1284;53.520;10.248;2023-04-06T00:13:38;101270.34;;;5.43;72.89
2549;BME280;1284;53.520;10.248;2023-04-06T00:16:05;101263.41;;;5.42;72.58
2549;BME280;1284;53.520;10.248;2023-04-06T00:18:31;101250.84;;;5.21;73.49
2549;BME280;1284;53.520;10.248;2023-04-06T00:20:57;101261.25;;;5.22;73.65
2549;BME280;1284;53.520;10.248;2023-04-06T00:23:23;101258.84;;;5.21;72.76
2549;BME280;1284;53.520;10.248;2023-04-06T00:25:48;101259.81;;;5.25;73.68
2549;BME280;1284;53.520;10.248;2023-04-06T00:28:14;101246.88;;;5.40;72.69
2549;BME280;1284;53.520;10.248;2023-04-06T00:30:40;101251.47;;;5.40;72.37
2549;BME280;1284;53.520;10.248;2023-04-06T00:33:06;101241.44;;;5.23;73.00
2549;BME280;1284;53.520;10.248;2023-04-06T00:35:32;101241.34;;;5.06;73.38
2549;BME280;1284;53.520;10.248;2023-04-06T00:37:58;101248.44;;;4.75;74.40
2549;BME280;1284;53.520;10.248;2023-04-06T00:40:24;101242.47;;;4.56;75.99
2549;BME280;1284;53.520;10.248;2023-04-06T00:42:50;101240.16;;;4.41;76.92
2549;BME280;1284;53.520;10.248;2023-04-06T00:45:16;101237.47;;;4.41;77.01
2549;BME280;1284;53.520;10.248;2023-04-06T00:47:42;101230.56;;;4.40;76.86
2549;BME280;1284;53.520;10.248;2023-04-06T00:50:10;101229.03;;;4.61;76.43
2549;BME280;1284;53.520;10.248;2023-04-06T00:52:36;101230.03;;;4.87;75.80
2549;BME280;1284;53.520;10.248;2023-04-06T00:55:03;101237.19;;;5.00;74.42
2549;BME280;1284;53.520;10.248;2023-04-06T00:57:32;101233.25;;;4.98;75.09
2549;BME280;1284;53.520;10.248;2023-04-06T00:59:57;101241.66;;;4.69;76.06
2549;BME280;1284;53.520;10.248;2023-04-06T01:02:24;101223.81;;;4.78;75.36
2549;BME280;1284;53.520;10.248;2023-04-06T01:04:52;101228.03;;;4.93;75.31
2549;BME280;1284;53.520;10.248;2023-04-06T01:07:26;101221.91;;;4.92;74.35
2549;BME280;1284;53.520;10.248;2023-04-06T01:10:25;101224.19;;;4.63;75.23
2549;BME280;1284;53.520;10.248;2023-04-06T01:13:11;101224.03;;;4.82;74.27
2549;BME280;1284;53.520;10.248;2023-04-06T01:15:50;101218.41;;;4.83;74.68
2549;BME280;1284;53.520;10.248;2023-04-06T01:18:27;101224.31;;;4.80;74.71
2549;BME280;1284;53.520;10.248;2023-04-06T01:21:02;101219.91;;;4.76;74.92
2549;BME280;1284;53.520;10.248;2023-04-06T01:23:28;101218.03;;;4.76;75.29
2549;BME280;1284;53.520;10.248;2023-04-06T01:28:40;101207.03;;;4.42;75.93
2549;BME280;1284;53.520;10.248;2023-04-06T01:31:16;101207.56;;;4.30;75.76
2549;BME280;1284;53.520;10.248;2023-04-06T01:33:49;101214.19;;;4.33;76.48
2549;BME280;1284;53.520;10.248;2023-04-06T01:36:18;101202.81;;;4.41;76.83
2549;BME280;1284;53.520;10.248;2023-04-06T01:38:48;101209.53;;;4.38;75.91
2549;BME280;1284;53.520;10.248;2023-04-06T01:41:16;101208.25;;;4.36;75.89
2549;BME280;1284;53.520;10.248;2023-04-06T01:43:47;101208.00;;;4.24;77.11
2549;BME280;1284;53.520;10.248;2023-04-06T01:46:13;101203.72;;;4.23;76.61
2549;BME280;1284;53.520;10.248;2023-04-06T01:48:42;101200.56;;;4.21;77.23
2549;BME280;1284;53.520;10.248;2023-04-06T01:51:27;101201.09;;;3.96;77.28
2549;BME280;1284;53.520;10.248;2023-04-06T01:53:58;101197.63;;;3.95;77.81
2549;BME280;1284;53.520;10.248;2023-04-06T01:56:33;101192.78;;;3.84;78.74
2549;BME280;1284;53.520;10.248;2023-04-06T01:59:08;101191.31;;;3.78;79.35
2549;BME280;1284;53.520;10.248;2023-04-06T02:01:38;101189.56;;;3.87;78.98
2549;BME280;1284;53.520;10.248;2023-04-06T02:04:04;101187.78;;;3.96;79.30
2549;BME280;1284;53.520;10.248;2023-04-06T02:06:29;101188.56;;;3.83;79.64
2549;BME280;1284;53.520;10.248;2023-04-06T02:08:56;101190.81;;;3.76;79.89
2549;BME280;1284;53.520;10.248;2023-04-06T02:11:22;101182.34;;;3.74;80.41
2549;BME280;1284;53.520;10.248;2023-04-06T02:13:52;101184.03;;;3.83;79.97
2549;BME280;1284;53.520;10.248;2023-04-06T02:16:17;101185.78;;;3.88;79.58
2549;BME280;1284;53.520;10.248;2023-04-06T02:18:45;101182.25;;;3.92;80.01
2549;BME280;1284;53.520;10.248;2023-04-06T02:21:10;101181.06;;;3.98;79.81
2549;BME280;1284;53.520;10.248;2023-04-06T02:23:36;101175.34;;;3.91;79.51
2549;BME280;1284;53.520;10.248;2023-04-06T02:26:02;101176.53;;;3.85;80.47
2549;BME280;1284;53.520;10.248;2023-04-06T02:28:27;101176.13;;;3.92;80.21
2549;BME280;1284;53.520;10.248;2023-04-06T02:30:53;101169.50;;;3.89;79.81
2549;BME280;1284;53.520;10.248;2023-04-06T02:36:10;101172.97;;;3.76;80.33
2549;BME280;1284;53.520;10.248;2023-04-06T02:38:36;101175.13;;;3.88;80.34
2549;BME280;1284;53.520;10.248;2023-04-06T02:41:02;101176.53;;;3.72;80.72
2549;BME280;1284;53.520;10.248;2023-04-06T02:43:28;101177.13;;;3.68;79.36
2549;BME280;1284;53.520;10.248;2023-04-06T02:46:02;101179.09;;;3.77;79.93
2549;BME280;1284;53.520;10.248;2023-04-06T02:48:30;101181.88;;;3.85;79.79
2549;BME280;1284;53.520;10.248;2023-04-06T02:50:55;101179.28;;;3.80;80.13
2549;BME280;1284;53.520;10.248;2023-04-06T02:53:21;101180.47;;;3.74;80.00
2549;BME280;1284;53.520;10.248;2023-04-06T02:55:46;101184.91;;;3.79;80.70
2549;BME280;1284;53.520;10.248;2023-04-06T02:58:12;101180.47;;;3.60;80.42
2549;BME280;1284;53.520;10.248;2023-04-06T03:00:48;101176.72;;;3.75;81.01
2549;BME280;1284;53.520;10.248;2023-04-06T03:03:13;101184.31;;;3.68;79.62
2549;BME280;1284;53.520;10.248;2023-04-06T03:05:40;101181.94;;;3.80;80.14
2549;BME280;1284;53.520;10.248;2023-04-06T03:08:06;101175.34;;;3.78;79.56
2549;BME280;1284;53.520;10.248;2023-04-06T03:10:39;101172.41;;;3.79;79.49
2549;BME280;1284;53.520;10.248;2023-04-06T03:13:05;101177.31;;;3.72;80.11
2549;BME280;1284;53.520;10.248;2023-04-06T03:15:56;101183.25;;;3.83;80.37
2549;BME280;1284;53.520;10.248;2023-04-06T03:18:23;101189.16;;;3.80;80.95
2549;BME280;1284;53.520;10.248;2023-04-06T03:20:50;101183.31;;;3.91;80.12
2549;BME280;1284;53.520;10.248;2023-04-06T03:23:17;101179.47;;;3.70;80.08
2549;BME280;1284;53.520;10.248;2023-04-06T03:25:46;101177.72;;;3.52;81.01
2549;BME280;1284;53.520;10.248;2023-04-06T03:28:15;101176.44;;;3.63;80.91
2549;BME280;1284;53.520;10.248;2023-04-06T03:30:52;101186.28;;;3.62;81.48
2549;BME280;1284;53.520;10.248;2023-04-06T03:33:35;101180.38;;;3.79;80.89
2549;BME280;1284;53.520;10.248;2023-04-06T03:36:01;101174.38;;;3.60;81.09
2549;BME280;1284;53.520;10.248;2023-04-06T03:38:27;101178.31;;;3.76;81.00
2549;BME280;1284;53.520;10.248;2023-04-06T03:40:53;101181.88;;;3.72;80.27
2549;BME280;1284;53.520;10.248;2023-04-06T03:43:22;101190.13;;;3.84;81.19
2549;BME280;1284;53.520;10.248;2023-04-06T03:45:48;101190.25;;;3.92;80.98
2549;BME280;1284;53.520;10.248;2023-04-06T03:48:14;101179.91;;;3.77;80.93
2549;BME280;1284;53.520;10.248;2023-04-06T03:50:40;101186.28;;;3.76;80.93
2549;BME280;1284;53.520;10.248;2023-04-06T03:53:05;101183.94;;;3.88;80.73
2549;BME280;1284;53.520;10.248;2023-04-06T03:55:31;101189.44;;;3.92;81.19
2549;BME280;1284;53.520;10.248;2023-04-06T03:57:56;101185.97;;;3.91;80.80
2549;BME280;1284;53.520;10.248;2023-04-06T04:00:23;101193.47;;;4.03;80.06
2549;BME280;1284;53.520;10.248;2023-04-06T04:02:49;101196.25;;;4.11;79.11
2549;BME280;1284;53.520;10.248;2023-04-06T04:05:15;101189.94;;;4.07;79.83
2549;BME280;1284;53.520;10.248;2023-04-06T04:07:40;101200.50;;;3.99;79.59
2549;BME280;1284;53.520;10.248;2023-04-06T04:10:09;101198.63;;;3.99;79.79
2549;BME280;1284;53.520;10.248;2023-04-06T04:12:34;101189.75;;;3.90;79.86
2549;BME280;1284;53.520;10.248;2023-04-06T04:15:00;101197.25;;;4.02;80.12
2549;BME280;1284;53.520;10.248;2023-04-06T04:17:26;101193.69;;;3.93;79.49
2549;BME280;1284;53.520;10.248;2023-04-06T04:19:51;101191.81;;;3.93;79.61
2549;BME280;1284;53.520;10.248;2023-04-06T04:22:17;101197.25;;;3.88;79.82
2549;BME280;1284;53.520;10.248;2023-04-06T04:24:43;101198.31;;;3.87;79.84
2549;BME280;1284;53.520;10.248;2023-04-06T04:27:09;101198.53;;;3.91;80.03
2549;BME280;1284;53.520;10.248;2023-04-06T04:29:36;101199.31;;;3.78;79.67
2549;BME280;1284;53.520;10.248;2023-04-06T04:32:05;101202.69;;;3.70;79.88
2549;BME280;1284;53.520;10.248;2023-04-06T04:34:32;101198.72;;;3.53;80.31
2549;BME280;1284;53.520;10.248;2023-04-06T04:36:58;101205.03;;;3.57;80.96
2549;BME280;1284;53.520;10.248;2023-04-06T04:39:36;101208.00;;;3.56;81.33
2549;BME280;1284;53.520;10.248;2023-04-06T04:42:05;101202.81;;;3.32;81.32
2549;BME280;1284;53.520;10.248;2023-04-06T04:44:33;101202.00;;;3.32;82.19
2549;BME280;1284;53.520;10.248;2023-04-06T04:46:59;101204.81;;;3.40;81.60
2549;BME280;1284;53.520;10.248;2023-04-06T04:49:37;101210.41;;;3.52;81.05
2549;BME280;1284;53.520;10.248;2023-04-06T04:52:03;101209.84;;;3.55;80.99
2549;BME280;1284;53.520;10.248;2023-04-06T04:54:40;101201.16;;;3.36;82.02
2549;BME280;1284;53.520;10.248;2023-04-06T04:57:09;101203.09;;;3.31;82.21
2549;BME280;1284;53.520;10.248;2023-04-06T04:59:39;101208.31;;;3.22;82.97
2549;BME280;1284;53.520;10.248;2023-04-06T05:02:13;101196.34;;;3.20;83.24
2549;BME280;1284;53.520;10.248;2023-04-06T05:04:51;101203.88;;;3.31;82.76
2549;BME280;1284;53.520;10.248;2023-04-06T05:07:21;101201.94;;;3.50;82.37
2549;BME280;1284;53.520;10.248;2023-04-06T05:09:49;101213.38;;;3.51;82.93
2549;BME280;1284;53.520;10.248;2023-04-06T05:12:15;101210.22;;;3.49;82.64
2549;BME280;1284;53.520;10.248;2023-04-06T05:14:51;101209.34;;;3.53;82.70
2549;BME280;1284;53.520;10.248;2023-04-06T05:17:18;101206.50;;;3.63;82.41
2549;BME280;1284;53.520;10.248;2023-04-06T05:19:44;101203.16;;;3.72;81.86
2549;BME280;1284;53.520;10.248;2023-04-06T05:22:11;101217.44;;;3.76;81.57
2549;BME280;1284;53.520;10.248;2023-04-06T05:24:41;101209.19;;;3.77;81.36
2549;BME280;1284;53.520;10.248;2023-04-06T05:27:07;101204.84;;;3.67;81.68
2549;BME280;1284;53.520;10.248;2023-04-06T05:29:33;101212.72;;;3.59;81.86
2549;BME280;1284;53.520;10.248;2023-04-06T05:31:59;101206.91;;;3.71;81.52
2549;BME280;1284;53.520;10.248;2023-04-06T05:34:25;101211.03;;;3.63;81.79
2549;BME280;1284;53.520;10.248;2023-04-06T05:36:50;101207.09;;;3.60;81.79
2549;BME280;1284;53.520;10.248;2023-04-06T05:39:20;101207.91;;;3.75;82.12
2549;BME280;1284;53.520;10.248;2023-04-06T05:41:49;101209.47;;;3.89;81.42
2549;BME280;1284;53.520;10.248;2023-04-06T05:44:19;101207.50;;;3.95;81.99
2549;BME280;1284;53.520;10.248;2023-04-06T05:46:51;101206.53;;;3.91;81.77
2549;BME280;1284;53.520;10.248;2023-04-06T05:49:16;101202.97;;;3.82;82.05
2549;BME280;1284;53.520;10.248;2023-04-06T05:54:30;101208.88;;;4.06;81.46
2549;BME280;1284;53.520;10.248;2023-04-06T05:57:01;101205.72;;;4.04;81.57
2549;BME280;1284;53.520;10.248;2023-04-06T05:59:27;101217.56;;;4.11;81.41
2549;BME280;1284;53.520;10.248;2023-04-06T06:01:53;101212.81;;;4.22;81.68
2549;BME280;1284;53.520;10.248;2023-04-06T06:04:19;101206.09;;;4.24;81.41
2549;BME280;1284;53.520;10.248;2023-04-06T06:06:46;101215.56;;;4.30;81.07
2549;BME280;1284;53.520;10.248;2023-04-06T06:09:18;101210.53;;;4.29;81.51
2549;BME280;1284;53.520;10.248;2023-04-06T06:11:57;101209.91;;;4.32;81.32
2549;BME280;1284;53.520;10.248;2023-04-06T06:14:25;101212.19;;;4.38;80.79
2549;BME280;1284;53.520;10.248;2023-04-06T06:19:43;101213.16;;;4.56;81.10
2549;BME280;1284;53.520;10.248;2023-04-06T06:22:09;101218.06;;;4.63;81.09
2549;BME280;1284;53.520;10.248;2023-04-06T06:24:41;101214.97;;;4.69;81.30
2549;BME280;1284;53.520;10.248;2023-04-06T06:27:07;101212.78;;;4.71;81.27
2549;BME280;1284;53.520;10.248;2023-04-06T06:29:34;101216.81;;;4.82;80.87
2549;BME280;1284;53.520;10.248;2023-04-06T06:32:00;101219.13;;;4.97;81.06
2549;BME280;1284;53.520;10.248;2023-04-06T06:34:26;101210.59;;;5.09;80.85
2549;BME280;1284;53.520;10.248;2023-04-06T06:36:54;101212.50;;;5.17;80.45
2549;BME280;1284;53.520;10.248;2023-04-06T06:39:21;101217.66;;;5.35;80.20
2549;BME280;1284;53.520;10.248;2023-04-06T06:41:48;101222.13;;;5.48;78.65
2549;BME280;1284;53.520;10.248;2023-04-06T06:44:13;101213.91;;;5.76;79.28
2549;BME280;1284;53.520;10.248;2023-04-06T06:46:39;101219.03;;;5.94;76.60
2549;BME280;1284;53.520;10.248;2023-04-06T06:49:05;101217.56;;;6.19;77.05
2549;BME280;1284;53.520;10.248;2023-04-06T06:51:31;101216.47;;;6.37;75.42
2549;BME280;1284;53.520;10.248;2023-04-06T06:53:56;101221.41;;;6.61;74.73
2549;BME280;1284;53.520;10.248;2023-04-06T06:56:22;101218.72;;;6.86;73.50
2549;BME280;1284;53.520;10.248;2023-04-06T06:58:51;101220.44;;;6.99;71.47
2549;BME280;1284;53.520;10.248;2023-04-06T07:01:16;101213.19;;;7.25;70.43
2549;BME280;1284;53.520;10.248;2023-04-06T07:03:42;101220.06;;;7.44;68.72
2549;BME280;1284;53.520;10.248;2023-04-06T07:06:07;101224.09;;;7.67;66.98
2549;BME280;1284;53.520;10.248;2023-04-06T07:08:33;101213.53;;;7.70;62.90
2549;BME280;1284;53.520;10.248;2023-04-06T07:10:59;101214.59;;;7.78;63.65
2549;BME280;1284;53.520;10.248;2023-04-06T07:13:24;101225.44;;;8.19;63.33
2549;BME280;1284;53.520;10.248;2023-04-06T07:15:54;101215.94;;;8.21;61.05
2549;BME280;1284;53.520;10.248;2023-04-06T07:18:21;101216.31;;;8.11;60.79
2549;BME280;1284;53.520;10.248;2023-04-06T07:20:47;101218.38;;;8.44;60.89
2549;BME280;1284;53.520;10.248;2023-04-06T07:23:14;101226.97;;;8.78;59.84
2549;BME280;1284;53.520;10.248;2023-04-06T07:25:40;101223.97;;;9.13;58.60
2549;BME280;1284;53.520;10.248;2023-04-06T07:28:08;101218.31;;;9.26;55.62
2549;BME280;1284;53.520;10.248;2023-04-06T07:30:33;101221.94;;;9.54;54.55
2549;BME280;1284;53.520;10.248;2023-04-06T07:32:59;101221.78;;;9.27;53.48
2549;BME280;1284;53.520;10.248;2023-04-06T07:35:26;101215.13;;;9.12;53.35
2549;BME280;1284;53.520;10.248;2023-04-06T07:37:53;101218.63;;;9.69;52.63
2549;BME280;1284;53.520;10.248;2023-04-06T07:40:20;101225.69;;;9.74;50.71
2549;BME280;1284;53.520;10.248;2023-04-06T07:42:46;101213.38;;;9.85;50.82
2549;BME280;1284;53.520;10.248;2023-04-06T07:45:15;101223.88;;;9.66;50.19
2549;BME280;1284;53.520;10.248;2023-04-06T07:47:42;101213.56;;;9.56;50.89
2549;BME280;1284;53.520;10.248;2023-04-06T07:50:08;101214.84;;;9.94;51.57
2549;BME280;1284;53.520;10.248;2023-04-06T07:52:34;101218.78;;;10.33;49.98
2549;BME280;1284;53.520;10.248;2023-04-06T07:55:00;101216.28;;;10.40;50.41
2549;BME280;1284;53.520;10.248;2023-04-06T07:57:25;101206.22;;;10.65;49.16
2549;BME280;1284;53.520;10.248;2023-04-06T07:59:51;101214.41;;;10.68;49.29
2549;BME280;1284;53.520;10.248;2023-04-06T08:02:16;101211.97;;;10.63;48.42
2549;BME280;1284;53.520;10.248;2023-04-06T08:04:43;101213.16;;;11.06;48.39
2549;BME280;1284;53.520;10.248;2023-04-06T08:07:08;101210.53;;;10.94;47.79
2549;BME280;1284;53.520;10.248;2023-04-06T08:09:34;101216.81;;;11.41;46.73
2549;BME280;1284;53.520;10.248;2023-04-06T08:11:59;101210.41;;;11.61;46.34
2549;BME280;1284;53.520;10.248;2023-04-06T08:14:25;101221.47;;;11.71;47.71
2549;BME280;1284;53.520;10.248;2023-04-06T08:16:51;101212.78;;;11.94;45.96
2549;BME280;1284;53.520;10.248;2023-04-06T08:19:16;101207.03;;;11.79;46.74
2549;BME280;1284;53.520;10.248;2023-04-06T08:21:47;101213.19;;;12.11;44.60
2549;BME280;1284;53.520;10.248;2023-04-06T08:24:13;101216.03;;;12.18;43.70
2549;BME280;1284;53.520;10.248;2023-04-06T08:26:39;101209.56;;;11.72;43.50
2549;BME280;1284;53.520;10.248;2023-04-06T08:29:04;101209.53;;;12.19;44.42
2549;BME280;1284;53.520;10.248;2023-04-06T08:31:33;101213.22;;;11.80;42.23
2549;BME280;1284;53.520;10.248;2023-04-06T08:33:59;101211.84;;;12.36;41.53
2549;BME280;1284;53.520;10.248;2023-04-06T08:36:24;101209.19;;;12.05;41.42
2549;BME280;1284;53.520;10.248;2023-04-06T08:38:50;101207.63;;;12.39;40.84
2549;BME280;1284;53.520;10.248;2023-04-06T08:41:16;101203.63;;;12.87;40.10
2549;BME280;1284;53.520;10.248;2023-04-06T08:43:46;101206.69;;;12.31;39.69
2549;BME280;1284;53.520;10.248;2023-04-06T08:46:12;101205.91;;;12.65;39.48
2549;BME280;1284;53.520;10.248;2023-04-06T08:48:41;101205.81;;;12.62;39.12
2549;BME280;1284;53.520;10.248;2023-04-06T08:51:08;101214.56;;;13.13;38.86
2549;BME280;1284;53.520;10.248;2023-04-06T08:53:34;101203.91;;;13.20;38.83
2549;BME280;1284;53.520;10.248;2023-04-06T08:56:00;101212.00;;;13.01;38.30
2549;BME280;1284;53.520;10.248;2023-04-06T08:58:28;101213.31;;;13.07;37.55
2549;BME280;1284;53.520;10.248;2023-04-06T09:00:57;101216.38;;;13.47;38.73
2549;BME280;1284;53.520;10.248;2023-04-06T09:03:25;101207.66;;;13.57;37.80
2549;BME280;1284;53.520;10.248;2023-04-06T09:05:51;101217.78;;;13.60;37.42
2549;BME280;1284;53.520;10.248;2023-04-06T09:08:17;101218.06;;;13.78;37.59
2549;BME280;1284;53.520;10.248;2023-04-06T09:10:42;101208.09;;;13.82;38.13
2549;BME280;1284;53.520;10.248;2023-04-06T09:13:08;101199.34;;;13.69;37.38
2549;BME280;1284;53.520;10.248;2023-04-06T09:15:34;101190.97;;;14.26;37.81
2549;BME280;1284;53.520;10.248;2023-04-06T09:18:00;101192.28;;;14.66;36.98
2549;BME280;1284;53.520;10.248;2023-04-06T09:20:26;101195.84;;;14.73;37.29
2549;BME280;1284;53.520;10.248;2023-04-06T09:22:54;101200.31;;;14.88;36.50
2549;BME280;1284;53.520;10.248;2023-04-06T09:25:24;101203.88;;;14.63;36.12
2549;BME280;1284;53.520;10.248;2023-04-06T09:27:59;101201.94;;;14.96;36.21
2549;BME280;1284;53.520;10.248;2023-04-06T09:30:25;101190.34;;;14.99;35.21
2549;BME280;1284;53.520;10.248;2023-04-06T09:32:54;101188.72;;;14.91;37.15
2549;BME280;1284;53.520;10.248;2023-04-06T09:35:22;101188.88;;;15.05;37.05
2549;BME280;1284;53.520;10.248;2023-04-06T09:37:51;101184.44;;;14.90;37.59
2549;BME280;1284;53.520;10.248;2023-04-06T09:40:18;101181.81;;;15.37;37.50
2549;BME280;1284;53.520;10.248;2023-04-06T09:42:48;101172.34;;;15.17;38.24
2549;BME280;1284;53.520;10.248;2023-04-06T09:45:15;101161.78;;;14.76;38.31
2549;BME280;1284;53.520;10.248;2023-04-06T09:47:45;101173.75;;;15.08;37.24
2549;BME280;1284;53.520;10.248;2023-04-06T09:50:12;101179.25;;;15.11;37.71
2549;BME280;1284;53.520;10.248;2023-04-06T09:52:42;101172.06;;;15.33;36.12
2549;BME280;1284;53.520;10.248;2023-04-06T09:55:12;101167.19;;;15.93;35.97
2549;BME280;1284;53.520;10.248;2023-04-06T10:01:03;101167.28;;;15.56;33.29
2549;BME280;1284;53.520;10.248;2023-04-06T10:03:40;101177.78;;;16.08;33.69
2549;BME280;1284;53.520;10.248;2023-04-06T10:06:14;101180.88;;;16.10;31.85
2549;BME280;1284;53.520;10.248;2023-04-06T10:08:40;101159.34;;;15.84;32.08
2549;BME280;1284;53.520;10.248;2023-04-06T10:11:09;101161.13;;;16.20;31.98
2549;BME280;1284;53.520;10.248;2023-04-06T10:13:36;101172.19;;;16.52;31.79
2549;BME280;1284;53.520;10.248;2023-04-06T10:16:02;101162.41;;;16.44;32.38
2549;BME280;1284;53.520;10.248;2023-04-06T10:18:29;101160.28;;;16.85;33.24
2549;BME280;1284;53.520;10.248;2023-04-06T10:21:00;101148.41;;;16.35;31.83
2549;BME280;1284;53.520;10.248;2023-04-06T10:25:57;101159.00;;;16.58;32.22
2549;BME280;1284;53.520;10.248;2023-04-06T10:28:23;101159.47;;;16.81;32.38
2549;BME280;1284;53.520;10.248;2023-04-06T10:30:48;101168.88;;;17.08;31.81
2549;BME280;1284;53.520;10.248;2023-04-06T10:33:19;101170.50;;;17.30;31.58
2549;BME280;1284;53.520;10.248;2023-04-06T10:35:47;101164.66;;;17.39;31.06
2549;BME280;1284;53.520;10.248;2023-04-06T10:38:13;101160.38;;;17.41;31.25
2549;BME280;1284;53.520;10.248;2023-04-06T10:40:41;101166.25;;;17.50;30.17
2549;BME280;1284;53.520;10.248;2023-04-06T10:43:19;101164.25;;;17.33;30.58
2549;BME280;1284;53.520;10.248;2023-04-06T10:45:54;101163.00;;;16.85;31.72
2549;BME280;1284;53.520;10.248;2023-04-06T10:48:20;101149.78;;;16.87;31.58
2549;BME280;1284;53.520;10.248;2023-04-06T10:50:51;101155.75;;;16.27;31.64
2549;BME280;1284;53.520;10.248;2023-04-06T10:53:26;101153.75;;;16.17;32.92
2549;BME280;1284;53.520;10.248;2023-04-06T10:55:55;101147.75;;;16.63;32.53
2549;BME280;1284;53.520;10.248;2023-04-06T10:58:25;101144.28;;;16.66;32.06
2549;BME280;1284;53.520;10.248;2023-04-06T11:00:51;101136.59;;;16.89;31.65
2549;BME280;1284;53.520;10.248;2023-04-06T11:03:17;101152.16;;;16.99;32.66
2549;BME280;1284;53.520;10.248;2023-04-06T11:05:44;101153.72;;;17.07;31.72
2549;BME280;1284;53.520;10.248;2023-04-06T11:08:21;101146.72;;;16.95;31.79
2549;BME280;1284;53.520;10.248;2023-04-06T11:10:47;101141.28;;;17.06;33.17
2549;BME280;1284;53.520;10.248;2023-04-06T11:13:14;101142.09;;;17.21;31.98
2549;BME280;1284;53.520;10.248;2023-04-06T11:15:40;101132.63;;;16.62;32.31
2549;BME280;1284;53.520;10.248;2023-04-06T11:18:05;101131.13;;;16.92;32.36
2549;BME280;1284;53.520;10.248;2023-04-06T11:20:31;101135.88;;;17.52;32.62
2549;BME280;1284;53.520;10.248;2023-04-06T11:22:56;101140.19;;;17.56;31.74
2549;BME280;1284;53.520;10.248;2023-04-06T11:25:24;101135.09;;;17.83;31.03
2549;BME280;1284;53.520;10.248;2023-04-06T11:27:51;101133.94;;;17.73;30.66
2549;BME280;1284;53.520;10.248;2023-04-06T11:30:17;101149.88;;;17.96;31.20
2549;BME280;1284;53.520;10.248;2023-04-06T11:32:44;101149.91;;;17.64;31.12
2549;BME280;1284;53.520;10.248;2023-04-06T11:35:20;101123.47;;;17.61;31.36
2549;BME280;1284;53.520;10.248;2023-04-06T11:37:48;101117.91;;;18.07;31.25
2549;BME280;1284;53.520;10.248;2023-04-06T11:40:14;101116.72;;;18.19;31.72
2549;BME280;1284;53.520;10.248;2023-04-06T11:42:40;101117.81;;;18.46;31.56
2549;BME280;1284;53.520;10.248;2023-04-06T11:45:07;101117.69;;;18.70;30.75
2549;BME280;1284;53.520;10.248;2023-04-06T11:47:34;101115.16;;;19.01;30.37
2549;BME280;1284;53.520;10.248;2023-04-06T11:50:31;101116.81;;;18.84;30.50
2549;BME280;1284;53.520;10.248;2023-04-06T11:52:58;101117.00;;;18.42;30.45
2549;BME280;1284;53.520;10.248;2023-04-06T11:55:37;101115.59;;;17.95;30.57
2549;BME280;1284;53.520;10.248;2023-04-06T11:58:03;101107.44;;;17.81;30.92
2549;BME280;1284;53.520;10.248;2023-04-06T12:00:29;101121.03;;;18.09;30.37
2549;BME280;1284;53.520;10.248;2023-04-06T12:02:59;101106.28;;;17.71;30.58
2549;BME280;1284;53.520;10.248;2023-04-06T12:05:26;101114.84;;;17.73;30.63
2549;BME280;1284;53.520;10.248;2023-04-06T12:07:52;101105.31;;;18.45;30.69
2549;BME280;1284;53.520;10.248;2023-04-06T12:10:18;101100.63;;;18.56;30.63
2549;BME280;1284;53.520;10.248;2023-04-06T12:12:43;101117.94;;;18.03;30.64
2549;BME280;1284;53.520;10.248;2023-04-06T12:15:09;101107.03;;;16.84;31.37
2549;BME280;1284;53.520;10.248;2023-04-06T12:17:35;101104.75;;;17.56;31.08
2549;BME280;1284;53.520;10.248;2023-04-06T12:20:02;101101.66;;;17.68;30.94
2549;BME280;1284;53.520;10.248;2023-04-06T12:22:28;101100.00;;;17.99;31.01
2549;BME280;1284;53.520;10.248;2023-04-06T12:24:53;101093.00;;;18.01;30.89
2549;BME280;1284;53.520;10.248;2023-04-06T12:27:19;101092.69;;;17.50;31.25
2549;BME280;1284;53.520;10.248;2023-04-06T12:29:45;101089.19;;;17.39;31.56
2549;BME280;1284;53.520;10.248;2023-04-06T12:32:11;101095.69;;;18.09;30.84
2549;BME280;1284;53.520;10.248;2023-04-06T12:34:37;101096.28;;;18.65;30.21
2549;BME280;1284;53.520;10.248;2023-04-06T12:37:03;101098.31;;;18.44;30.42
2549;BME280;1284;53.520;10.248;2023-04-06T12:39:28;101095.22;;;18.38;30.76
2549;BME280;1284;53.520;10.248;2023-04-06T12:41:55;101101.25;;;17.31;30.98
2549;BME280;1284;53.520;10.248;2023-04-06T12:44:21;101103.19;;;17.66;30.67
2549;BME280;1284;53.520;10.248;2023-04-06T12:46:47;101093.03;;;17.98;30.48
2549;BME280;1284;53.520;10.248;2023-04-06T12:49:12;101107.03;;;17.96;30.70
2549;BME280;1284;53.520;10.248;2023-04-06T12:51:38;101089.47;;;18.08;30.39
2549;BME280;1284;53.520;10.248;2023-04-06T12:56:29;101081.59;;;18.28;30.83
2549;BME280;1284;53.520;10.248;2023-04-06T12:58:56;101082.34;;;18.35;30.93
2549;BME280;1284;53.520;10.248;2023-04-06T13:01:21;101089.50;;;17.90;30.77
2549;BME280;1284;53.520;10.248;2023-04-06T13:03:47;101080.63;;;17.34;31.10
2549;BME280;1284;53.520;10.248;2023-04-06T13:06:12;101071.47;;;18.32;30.38
2549;BME280;1284;53.520;10.248;2023-04-06T13:08:40;101073.63;;;17.64;30.25
2549;BME280;1284;53.520;10.248;2023-04-06T13:11:06;101069.72;;;17.27;31.65
2549;BME280;1284;53.520;10.248;2023-04-06T13:13:35;101067.41;;;17.43;31.32
2549;BME280;1284;53.520;10.248;2023-04-06T13:16:03;101074.78;;;17.70;30.87
2549;BME280;1284;53.520;10.248;2023-04-06T13:18:30;101076.69;;;17.84;31.59
2549;BME280;1284;53.520;10.248;2023-04-06T13:20:56;101067.25;;;18.13;31.26
2549;BME280;1284;53.520;10.248;2023-04-06T13:23:23;101073.13;;;18.04;30.01
2549;BME280;1284;53.520;10.248;2023-04-06T13:26:00;101063.53;;;17.12;31.19
2549;BME280;1284;53.520;10.248;2023-04-06T13:28:27;101055.72;;;17.70;31.39
2549;BME280;1284;53.520;10.248;2023-04-06T13:30:53;101055.97;;;18.04;30.89